Time;durP1;ratioP1;P1;durP2;ratioP2;P2;SDS_P1;SDS_P2;PMS_P1;PMS_P2;Temp;Humidity;BMP_temperature;BMP_pressure;BME280_temperature;BME280_humidity;BME280_pressure;Samples;Min_cycle;Max_cycle;Signal;HPM_P1;HPM_P2
2023/08/02 00:00:57;;;;;;;2.37;2.20;;;;;;;14.32;nan;96133.56;4990676;28;20209;-64
2023/08/02 00:03:25;;;;;;;2.50;2.30;;;;;;;14.24;nan;96124.06;4993477;28;20274;-65
2023/08/02 00:05:54;;;;;;;2.57;2.30;;;;;;;14.23;nan;96133.09;4989560;28;20311;-65
2023/08/02 00:08:22;;;;;;;2.50;1.67;;;;;;;13.95;nan;96115.97;4997073;28;20215;-65
2023/08/02 00:10:51;;;;;;;2.47;2.27;;;;;;;14.12;nan;96140.03;4993488;28;20615;-64
2023/08/02 00:13:19;;;;;;;2.10;2.00;;;;;;;14.04;nan;96141.22;4999524;28;20860;-64
2023/08/02 00:15:47;;;;;;;2.97;2.30;;;;;;;14.02;nan;96140.66;4994655;28;20197;-65
2023/08/02 00:18:16;;;;;;;2.33;2.13;;;;;;;14.02;nan;96140.66;4999166;28;20209;-65
2023/08/02 00:20:45;;;;;;;2.67;2.10;;;;;;;13.94;nan;96146.28;4996085;28;20221;-64
2023/08/02 00:23:12;;;;;;;2.17;2.00;;;;;;;13.97;nan;96150.34;4995589;28;20676;-63
2023/08/02 00:25:40;;;;;;;2.13;2.00;;;;;;;13.94;nan;96142.84;4895018;28;20211;-64
2023/08/02 00:28:09;;;;;;;1.83;1.73;;;;;;;13.95;nan;96150.56;4996878;28;20201;-62
2023/08/02 00:30:44;;;;;;;2.23;2.03;;;;;;;13.94;nan;96148.16;4995196;28;20211;-62
2023/08/02 00:33:12;;;;;;;2.37;2.27;;;;;;;13.97;nan;96147.69;4995740;28;20228;-63
2023/08/02 00:35:44;;;;;;;2.40;2.23;;;;;;;13.97;nan;96145.81;4993700;28;20206;-62
2023/08/02 00:38:12;;;;;;;2.30;2.20;;;;;;;13.95;nan;96147.13;4994004;28;20217;-63
2023/08/02 00:40:40;;;;;;;2.50;2.10;;;;;;;13.89;nan;96147.00;4994635;28;20216;-63
2023/08/02 00:43:09;;;;;;;3.00;1.90;;;;;;;13.82;nan;96146.28;5002363;28;20217;-63
2023/08/02 00:45:37;;;;;;;3.03;2.17;;;;;;;13.61;nan;96113.03;4997148;28;20211;-64
2023/08/02 00:48:05;;;;;;;3.60;2.60;;;;;;;13.78;nan;96142.47;4996973;28;20215;-63
2023/08/02 00:50:35;;;;;;;3.33;3.00;;;;;;;13.71;nan;96149.75;4993742;28;20259;-63
2023/08/02 00:53:03;;;;;;;6.07;2.80;;;;;;;13.70;nan;96148.94;4993906;28;20237;-65
2023/08/02 00:55:31;;;;;;;2.60;2.40;;;;;;;13.62;nan;96135.94;4993849;28;20209;-63
2023/08/02 00:57:58;;;;;;;2.77;2.37;;;;;;;13.68;nan;96145.72;4999309;28;20205;-63
2023/08/02 01:00:28;;;;;;;2.23;2.13;;;;;;;13.51;nan;96144.72;4900849;28;20212;-64
2023/08/02 01:02:56;;;;;;;2.50;2.33;;;;;;;13.40;nan;96133.81;4994978;28;20225;-63
2023/08/02 01:05:28;;;;;;;4.37;2.87;;;;;;;13.29;nan;96142.59;4997265;28;20642;-64
2023/08/02 01:07:59;;;;;;;2.40;2.20;;;;;;;13.25;nan;96149.38;4995275;28;20274;-63
2023/08/02 01:10:31;;;;;;;3.47;2.70;;;;;;;13.24;nan;96137.94;4993854;28;20224;-63
2023/08/02 01:13:01;;;;;;;3.10;2.20;;;;;;;13.22;nan;96141.84;4999143;28;20228;-62
2023/08/02 01:15:30;;;;;;;3.90;2.63;;;;;;;13.16;nan;96143.56;4997453;28;20664;-64
2023/08/02 01:17:57;;;;;;;2.80;2.37;;;;;;;13.17;nan;96150.50;4998407;28;20245;-63
2023/08/02 01:20:26;;;;;;;2.33;2.23;;;;;;;13.16;nan;96148.91;4997033;28;20213;-63
2023/08/02 01:22:54;;;;;;;2.47;2.23;;;;;;;13.23;nan;96146.94;4995720;28;20232;-63
2023/08/02 01:25:21;;;;;;;2.87;2.67;;;;;;;13.29;nan;96145.25;4931890;28;20589;-63
2023/08/02 01:27:54;;;;;;;3.43;2.80;;;;;;;13.29;nan;96143.38;4999482;28;20311;-63
2023/08/02 01:30:24;;;;;;;2.97;2.67;;;;;;;13.27;nan;96142.78;4994778;28;20232;-63
2023/08/02 01:32:53;;;;;;;2.70;2.50;;;;;;;13.22;nan;96136.53;4996620;28;20229;-63
2023/08/02 01:35:21;;;;;;;2.43;2.30;;;;;;;13.12;nan;96132.56;4893023;28;20224;-64
2023/08/02 01:37:51;;;;;;;2.60;2.40;;;;;;;13.12;nan;96131.78;4996414;28;20529;-63
2023/08/02 01:40:19;;;;;;;2.80;2.60;;;;;;;12.99;nan;96114.94;4993747;28;20327;-63
2023/08/02 01:42:46;;;;;;;3.77;2.87;;;;;;;12.88;nan;96119.19;4998285;28;20225;-63
2023/08/02 01:45:26;;;;;;;2.73;2.57;;;;;;;12.87;nan;96122.06;4991762;28;20224;-63
2023/08/02 01:47:55;;;;;;;3.10;2.90;;;;;;;12.84;nan;96118.00;4993440;28;20522;-63
2023/08/02 01:50:23;;;;;;;2.43;2.30;;;;;;;12.81;nan;96117.66;4993000;28;20212;-62
2023/08/02 01:52:52;;;;;;;2.30;2.20;;;;;;;12.83;nan;96112.94;4997484;28;20220;-63
2023/08/02 01:55:20;;;;;;;4.57;2.87;;;;;;;12.91;nan;96112.59;4993158;28;20201;-63
2023/08/02 01:57:48;;;;;;;3.07;2.67;;;;;;;12.88;nan;96097.94;5000662;28;20667;-63
2023/08/02 02:00:16;;;;;;;2.90;2.70;;;;;;;12.85;nan;96108.19;4991085;28;21169;-63
2023/08/02 02:02:43;;;;;;;2.80;2.60;;;;;;;12.83;nan;96100.44;4996200;28;20233;-63
2023/08/02 02:05:11;;;;;;;3.23;2.97;;;;;;;12.78;nan;96096.84;4889649;28;20229;-63
2023/08/02 02:07:39;;;;;;;2.80;2.60;;;;;;;12.81;nan;96099.06;4998290;28;20216;-64
2023/08/02 02:10:09;;;;;;;3.43;3.13;;;;;;;12.74;nan;96091.97;4991821;28;20300;-64
2023/08/02 02:12:37;;;;;;;2.60;2.40;;;;;;;12.75;nan;96095.44;4997781;28;20221;-64
2023/08/02 02:15:05;;;;;;;2.70;2.30;;;;;;;12.75;nan;96092.78;4990117;28;20236;-64
2023/08/02 02:17:33;;;;;;;2.63;2.43;;;;;;;12.71;nan;96088.94;4995135;28;20201;-63
2023/08/02 02:20:01;;;;;;;2.60;2.13;;;;;;;12.77;nan;96089.91;4988768;28;20298;-63
2023/08/02 02:22:29;;;;;;;3.67;2.90;;;;;;;12.75;nan;96092.78;4998057;28;20221;-61
2023/08/02 02:24:56;;;;;;;3.07;2.40;;;;;;;12.82;nan;96092.69;4994039;28;20213;-64
2023/08/02 02:27:25;;;;;;;2.50;2.30;;;;;;;12.78;nan;96089.66;4998126;28;20216;-64
2023/08/02 02:29:53;;;;;;;3.87;2.40;;;;;;;12.72;nan;96088.72;4995178;28;20218;-62
2023/08/02 02:32:21;;;;;;;2.60;2.40;;;;;;;12.79;nan;96098.47;4995797;28;20227;-62
2023/08/02 02:34:48;;;;;;;2.73;2.53;;;;;;;12.86;nan;96101.84;4995683;28;20695;-64
2023/08/02 02:37:16;;;;;;;3.50;2.53;;;;;;;12.91;nan;96096.66;4899660;28;20256;-64
2023/08/02 02:39:44;;;;;;;2.80;2.70;;;;;;;12.91;nan;96096.66;4992246;28;20212;-63
2023/08/02 02:42:12;;;;;;;3.17;2.50;;;;;;;12.88;nan;96097.09;4992030;28;20255;-63
2023/08/02 02:44:42;;;;;;;2.80;2.60;;;;;;;12.83;nan;96083.69;4997102;28;20205;-63
2023/08/02 02:47:10;;;;;;;3.70;2.90;;;;;;;12.81;nan;96072.47;4991356;28;20465;-64
2023/08/02 02:49:38;;;;;;;3.17;2.97;;;;;;;12.65;nan;96074.69;4995244;28;20209;-65
2023/08/02 02:52:07;;;;;;;2.87;2.77;;;;;;;12.52;nan;96070.38;4989345;28;20229;-63
2023/08/02 02:54:34;;;;;;;3.03;2.83;;;;;;;12.45;nan;96056.34;4996210;28;20229;-63
2023/08/02 02:57:02;;;;;;;3.00;2.80;;;;;;;12.36;nan;96061.19;4993700;28;20216;-63
2023/08/02 02:59:30;;;;;;;2.93;2.73;;;;;;;12.36;nan;96068.31;4997151;28;20323;-63
2023/08/02 03:01:59;;;;;;;2.87;2.77;;;;;;;12.27;nan;96073.13;4988467;28;20227;-65
2023/08/02 03:04:26;;;;;;;3.83;3.03;;;;;;;12.24;nan;96076.22;4992559;28;21704;-64
2023/08/02 03:06:55;;;;;;;3.00;2.70;;;;;;;12.17;nan;96076.31;4949746;28;21311;-63
2023/08/02 03:09:23;;;;;;;4.33;3.43;;;;;;;12.07;nan;96066.19;4945868;28;20217;-63
2023/08/02 03:11:51;;;;;;;3.10;2.80;;;;;;;12.03;nan;96070.34;4993410;28;20222;-63
2023/08/02 03:14:19;;;;;;;4.80;2.70;;;;;;;11.96;nan;96058.94;4989988;28;20711;-63
2023/08/02 03:16:47;;;;;;;3.53;3.23;;;;;;;11.95;nan;96059.97;4995550;28;20220;-64
2023/08/02 03:19:16;;;;;;;4.53;2.90;;;;;;;11.93;nan;96077.94;4990538;28;20282;-64
2023/08/02 03:21:44;;;;;;;3.27;2.67;;;;;;;11.91;nan;96077.34;4994215;28;20230;-63
2023/08/02 03:24:12;;;;;;;3.17;2.97;;;;;;;11.90;nan;96070.41;4989855;28;20201;-63
2023/08/02 03:26:39;;;;;;;2.90;2.70;;;;;;;11.88;nan;96073.31;4997934;28;20558;-65
2023/08/02 03:29:07;;;;;;;3.13;2.93;;;;;;;11.69;nan;96044.06;4991941;28;20201;-64
2023/08/02 03:31:35;;;;;;;4.57;2.87;;;;;;;11.79;nan;96056.84;4987283;28;20671;-63
2023/08/02 03:34:03;;;;;;;2.67;2.47;;;;;;;11.86;nan;96065.56;4936176;28;20232;-66
2023/08/02 03:36:32;;;;;;;3.43;3.00;;;;;;;11.83;nan;96057.22;4991551;28;20664;-64
2023/08/02 03:39:00;;;;;;;3.23;2.77;;;;;;;11.78;nan;96055.22;4892858;28;20216;-64
2023/08/02 03:41:28;;;;;;;3.63;2.97;;;;;;;11.72;nan;96058.75;4995067;28;20723;-63
2023/08/02 03:43:56;;;;;;;3.30;3.10;;;;;;;11.72;nan;96056.09;4991740;28;20222;-64
2023/08/02 03:46:24;;;;;;;3.17;2.83;;;;;;;11.70;nan;96064.28;4998931;28;20217;-63
2023/08/02 03:48:51;;;;;;;2.77;2.57;;;;;;;11.69;nan;96053.91;4996172;28;20323;-63
2023/08/02 03:51:19;;;;;;;3.37;3.07;;;;;;;11.70;nan;96063.47;4993492;28;20259;-64
2023/08/02 03:53:48;;;;;;;5.13;3.20;;;;;;;11.73;nan;96060.38;4988038;28;20213;-63
2023/08/02 03:56:16;;;;;;;4.50;3.00;;;;;;;11.71;nan;96051.84;4992900;28;20240;-62
2023/08/02 03:58:44;;;;;;;3.47;3.27;;;;;;;11.78;nan;96047.25;4992039;28;20213;-63
2023/08/02 04:01:11;;;;;;;3.70;3.40;;;;;;;11.78;nan;96041.97;4924997;28;20870;-63
2023/08/02 04:03:39;;;;;;;5.23;3.00;;;;;;;11.85;nan;96052.53;4995949;28;20216;-64
2023/08/02 04:06:07;;;;;;;4.07;3.60;;;;;;;11.82;nan;96063.56;4991627;28;20201;-64
2023/08/02 04:08:35;;;;;;;3.33;3.13;;;;;;;11.89;nan;96053.69;4998227;28;20249;-63
2023/08/02 04:11:07;;;;;;;3.50;3.30;;;;;;;11.87;nan;96045.94;4896272;28;21343;-62
2023/08/02 04:13:35;;;;;;;4.17;3.17;;;;;;;11.99;nan;96038.06;4996304;28;20212;-65
2023/08/02 04:16:03;;;;;;;4.20;3.90;;;;;;;12.05;nan;96048.84;4951677;28;20236;-63
2023/08/02 04:18:31;;;;;;;5.80;3.50;;;;;;;12.08;nan;96035.97;4994214;28;20227;-63
2023/08/02 04:20:59;;;;;;;4.20;3.20;;;;;;;12.21;nan;96027.03;4993412;28;20220;-66
2023/08/02 04:23:27;;;;;;;3.10;2.90;;;;;;;12.24;nan;96029.25;4993509;28;21060;-63
2023/08/02 04:25:54;;;;;;;3.60;3.30;;;;;;;12.38;nan;96034.38;4991881;28;20299;-64
2023/08/02 04:28:26;;;;;;;3.53;3.23;;;;;;;12.46;nan;96028.75;4995213;28;20205;-63
2023/08/02 04:30:54;;;;;;;3.37;3.10;;;;;;;12.57;nan;96029.84;4989939;28;20213;-64
2023/08/02 04:33:22;;;;;;;4.20;3.33;;;;;;;12.65;nan;96016.25;4994503;28;20225;-62
2023/08/02 04:35:49;;;;;;;3.70;3.40;;;;;;;12.81;nan;96011.34;4994212;28;20229;-64
2023/08/02 04:38:17;;;;;;;3.60;3.30;;;;;;;12.88;nan;96006.72;4992122;28;21076;-61
2023/08/02 04:40:45;;;;;;;3.10;2.90;;;;;;;13.04;nan;95997.28;4929564;28;20723;-63
2023/08/02 04:43:13;;;;;;;5.03;3.40;;;;;;;13.11;nan;95997.19;4992869;28;20223;-64
2023/08/02 04:45:42;;;;;;;3.40;3.10;;;;;;;13.21;nan;95985.97;4886754;28;20224;-62
2023/08/02 04:48:10;;;;;;;3.27;2.97;;;;;;;13.19;nan;95983.56;4990671;28;20198;-62
2023/08/02 04:50:38;;;;;;;3.00;2.80;;;;;;;13.27;nan;95975.22;4950834;28;20209;-63
2023/08/02 04:53:06;;;;;;;3.03;2.67;;;;;;;13.32;nan;95979.84;4994000;28;20229;-62
2023/08/02 04:55:41;;;;;;;3.47;3.17;;;;;;;13.40;nan;95976.03;4997725;28;20225;-63
2023/08/02 04:58:09;;;;;;;3.53;2.90;;;;;;;13.57;nan;95974.31;4999500;28;20212;-62
2023/08/02 05:00:36;;;;;;;2.83;2.63;;;;;;;13.64;nan;95966.22;4992468;28;20237;-64
2023/08/02 05:03:05;;;;;;;3.10;2.90;;;;;;;13.83;nan;95950.91;4996521;28;20236;-63
2023/08/02 05:05:33;;;;;;;3.10;2.90;;;;;;;14.15;nan;95949.66;4994576;28;20208;-63
2023/08/02 05:08:01;;;;;;;2.37;2.27;;;;;;;14.38;nan;95955.94;4996622;28;20215;-61
2023/08/02 05:10:29;;;;;;;3.17;2.97;;;;;;;14.53;nan;95948.22;4992385;28;20220;-63
2023/08/02 05:12:57;;;;;;;3.47;3.20;;;;;;;14.79;nan;95947.88;4998300;28;20217;-61
2023/08/02 05:15:24;;;;;;;4.03;2.80;;;;;;;14.62;nan;95951.31;4992007;28;20233;-63
2023/08/02 05:17:52;;;;;;;2.87;2.57;;;;;;;14.70;nan;95947.44;4996038;28;20209;-65
2023/08/02 05:20:21;;;;;;;4.27;2.63;;;;;;;14.87;nan;95939.47;4898919;28;20541;-63
2023/08/02 05:22:50;;;;;;;3.70;3.40;;;;;;;14.84;nan;95939.97;4997959;28;20263;-63
2023/08/02 05:25:17;;;;;;;3.80;2.37;;;;;;;14.77;nan;95945.44;4948176;28;20816;-63
2023/08/02 05:27:45;;;;;;;2.67;2.47;;;;;;;14.86;nan;95951.19;4999143;28;20318;-62
2023/08/02 05:30:13;;;;;;;2.93;2.73;;;;;;;14.79;nan;95953.22;4939228;28;20208;-64
2023/08/02 05:32:41;;;;;;;2.63;2.53;;;;;;;14.94;nan;95953.47;4927256;28;20240;-64
2023/08/02 05:35:09;;;;;;;3.63;2.70;;;;;;;15.03;nan;95954.69;4998965;28;20233;-64
2023/08/02 05:37:38;;;;;;;3.27;3.07;;;;;;;15.08;nan;95939.81;4986870;28;20213;-62
2023/08/02 05:40:06;;;;;;;3.57;3.00;;;;;;;15.04;nan;95934.97;4995483;28;20696;-63
2023/08/02 05:42:34;;;;;;;5.40;2.57;;;;;;;15.37;nan;95932.50;4991354;28;20648;-63
2023/08/02 05:45:02;;;;;;;2.83;2.63;;;;;;;15.56;nan;95927.69;4997295;28;20235;-63
2023/08/02 05:47:30;;;;;;;3.13;2.87;;;;;;;15.52;nan;95929.25;4989097;28;20216;-63
2023/08/02 05:49:58;;;;;;;2.50;2.40;;;;;;;15.41;nan;95933.63;4997208;28;20664;-63
2023/08/02 05:52:26;;;;;;;2.70;2.50;;;;;;;15.55;nan;95927.97;4919573;28;21315;-63
2023/08/02 05:54:55;;;;;;;2.97;2.77;;;;;;;15.74;nan;95933.81;4998292;28;20283;-65
2023/08/02 05:57:23;;;;;;;2.77;2.37;;;;;;;15.84;nan;95914.41;4952880;28;20887;-64
2023/08/02 05:59:51;;;;;;;3.23;2.80;;;;;;;15.64;nan;95918.47;4996628;28;20205;-64
2023/08/02 06:02:18;;;;;;;3.10;2.80;;;;;;;15.72;nan;95918.03;4937825;28;21243;-63
2023/08/02 06:04:46;;;;;;;3.10;2.80;;;;;;;15.72;nan;95919.88;4995721;28;20216;-63
2023/08/02 06:07:14;;;;;;;2.80;2.67;;;;;;;15.75;nan;95927.41;4992179;28;20212;-64
2023/08/02 06:09:42;;;;;;;4.67;2.80;;;;;;;15.81;nan;95930.94;4997408;28;20204;-63
2023/08/02 06:12:11;;;;;;;3.63;2.97;;;;;;;15.88;nan;95926.25;4929782;28;20807;-65
2023/08/02 06:14:38;;;;;;;2.83;2.60;;;;;;;15.78;nan;95926.91;4998409;28;20461;-64
2023/08/02 06:17:06;;;;;;;5.93;2.90;;;;;;;15.53;nan;95922.84;4996935;28;20931;-65
2023/08/02 06:19:34;;;;;;;4.40;2.53;;;;;;;15.50;nan;95928.69;4870197;28;20850;-65
2023/08/02 06:22:02;;;;;;;2.60;2.50;;;;;;;15.38;nan;95920.78;4994733;28;20224;-63
2023/08/02 06:24:30;;;;;;;3.70;3.27;;;;;;;15.30;nan;95892.66;4909921;28;20711;-63
2023/08/02 06:26:58;;;;;;;3.53;2.80;;;;;;;15.40;nan;95913.31;4977622;28;20279;-64
2023/08/02 06:29:27;;;;;;;2.37;2.17;;;;;;;15.36;nan;95909.53;4956706;28;20687;-64
2023/08/02 06:31:55;;;;;;;2.90;2.70;;;;;;;15.34;nan;95899.13;4986201;28;20233;-64
2023/08/02 06:34:23;;;;;;;3.10;2.90;;;;;;;15.32;nan;95868.41;4960761;28;20880;-64
2023/08/02 06:36:51;;;;;;;3.03;2.53;;;;;;;15.42;nan;95887.19;4980978;28;20275;-62
2023/08/02 06:39:19;;;;;;;2.80;2.60;;;;;;;15.63;nan;95885.59;4989927;28;20213;-65
2023/08/02 06:41:47;;;;;;;3.53;2.97;;;;;;;15.61;nan;95884.25;4991365;28;20256;-64
2023/08/02 06:44:15;;;;;;;3.03;2.77;;;;;;;15.46;nan;95887.53;4993537;28;20687;-63
2023/08/02 06:46:44;;;;;;;6.97;2.77;;;;;;;15.61;nan;95877.03;4992399;28;20202;-63
2023/08/02 06:49:12;;;;;;;3.77;2.97;;;;;;;15.70;nan;95885.41;4998580;28;20224;-63
2023/08/02 06:51:40;;;;;;;2.80;2.70;;;;;;;15.56;nan;95873.50;4993645;28;20564;-63
2023/08/02 06:54:08;;;;;;;3.10;2.90;;;;;;;15.60;nan;95874.63;4994461;28;20209;-63
2023/08/02 06:56:36;;;;;;;3.20;2.90;;;;;;;15.69;nan;95885.66;4995254;28;20232;-62
2023/08/02 06:59:04;;;;;;;2.97;2.67;;;;;;;15.74;nan;95873.19;4971676;28;20601;-62
2023/08/02 07:01:32;;;;;;;2.57;2.47;;;;;;;15.57;nan;95891.16;4918514;28;20563;-63
2023/08/02 07:04:01;;;;;;;3.20;3.00;;;;;;;15.54;nan;95895.09;4994404;28;20224;-65
2023/08/02 07:06:29;;;;;;;3.90;2.53;;;;;;;15.54;nan;95895.09;4949492;28;20771;-62
2023/08/02 07:08:57;;;;;;;2.77;2.57;;;;;;;15.59;nan;95894.38;4996067;28;20228;-64
2023/08/02 07:11:25;;;;;;;3.57;3.13;;;;;;;15.69;nan;95896.34;4991367;28;20233;-65
2023/08/02 07:14:02;;;;;;;3.37;3.07;;;;;;;15.70;nan;95893.44;4993821;28;20214;-65
2023/08/02 07:16:30;;;;;;;3.00;2.73;;;;;;;15.75;nan;95884.69;4993916;28;20236;-61
2023/08/02 07:19:00;;;;;;;3.40;3.10;;;;;;;15.81;nan;95898.88;4993982;28;20204;-63
2023/08/02 07:21:30;;;;;;;3.93;2.80;;;;;;;15.81;nan;95894.38;4993272;28;20225;-63
2023/08/02 07:23:57;;;;;;;2.87;2.67;;;;;;;15.89;nan;95899.28;4994661;28;20214;-64
2023/08/02 07:26:25;;;;;;;3.63;2.77;;;;;;;15.98;nan;95890.84;4990366;28;20232;-63
2023/08/02 07:28:53;;;;;;;3.43;3.00;;;;;;;16.00;nan;95889.53;4992299;28;20213;-64
2023/08/02 07:31:21;;;;;;;3.07;2.80;;;;;;;15.75;nan;95863.31;4896365;28;20525;-64
2023/08/02 07:33:49;;;;;;;2.53;2.43;;;;;;;15.66;nan;95886.16;4989371;28;20228;-65
2023/08/02 07:36:19;;;;;;;7.30;2.63;;;;;;;15.63;nan;95888.28;4991384;28;20232;-65
2023/08/02 07:38:49;;;;;;;3.07;2.80;;;;;;;15.65;nan;95881.88;4993411;28;20209;-65
2023/08/02 07:41:16;;;;;;;4.03;2.90;;;;;;;15.74;nan;95875.84;4942504;28;20247;-63
2023/08/02 07:43:46;;;;;;;2.70;2.50;;;;;;;15.75;nan;95879.34;4994411;28;20683;-63
2023/08/02 07:46:18;;;;;;;2.63;2.43;;;;;;;15.61;nan;95876.25;4987293;28;20211;-63
2023/08/02 07:48:46;;;;;;;3.43;3.07;;;;;;;15.71;nan;95876.34;4995493;28;20213;-63
2023/08/02 07:51:14;;;;;;;3.40;3.20;;;;;;;15.81;nan;95866.84;4992004;28;20245;-62
2023/08/02 07:53:41;;;;;;;2.63;2.53;;;;;;;15.89;nan;95869.09;4927964;28;22972;-64
2023/08/02 07:56:11;;;;;;;3.07;2.87;;;;;;;15.91;nan;95867.81;4993128;28;20212;-64
2023/08/02 07:58:38;;;;;;;2.50;2.30;;;;;;;15.84;nan;95866.34;4992515;28;20426;-63
2023/08/02 08:01:07;;;;;;;3.20;2.93;;;;;;;15.91;nan;95867.81;4995491;28;20228;-64
2023/08/02 08:03:35;;;;;;;4.93;3.47;;;;;;;15.91;nan;95869.69;4887969;28;20429;-62
2023/08/02 08:06:10;;;;;;;3.43;3.20;;;;;;;15.81;nan;95872.19;4993881;28;20630;-62
2023/08/02 08:08:38;;;;;;;3.40;3.20;;;;;;;15.80;nan;95875.91;4989975;28;20259;-61
2023/08/02 08:11:05;;;;;;;3.90;3.57;;;;;;;15.86;nan;95875.72;4992800;28;20213;-63
2023/08/02 08:13:35;;;;;;;3.90;3.60;;;;;;;16.02;nan;95868.72;4937310;28;20217;-62
2023/08/02 08:16:02;;;;;;;4.17;3.17;;;;;;;16.02;nan;95873.25;4995169;28;20198;-63
2023/08/02 08:18:31;;;;;;;4.87;3.20;;;;;;;16.08;nan;95866.09;4991773;28;20260;-63
2023/08/02 08:20:59;;;;;;;3.40;3.10;;;;;;;16.12;nan;95864.53;4989402;28;20255;-62
2023/08/02 08:23:27;;;;;;;3.60;3.30;;;;;;;16.04;nan;95865.78;4988451;28;20491;-61
2023/08/02 08:25:55;;;;;;;4.37;3.90;;;;;;;16.31;nan;95860.47;4994677;28;20771;-63
2023/08/02 08:28:23;;;;;;;6.03;5.50;;;;;;;16.43;nan;95862.16;4992621;28;20213;-62
2023/08/02 08:31:00;;;;;;;3.60;3.40;;;;;;;16.89;nan;95870.53;4995773;28;20213;-64
2023/08/02 08:33:28;;;;;;;5.30;3.00;;;;;;;17.04;nan;95829.75;4896217;28;20949;-64
2023/08/02 08:35:56;;;;;;;3.30;3.10;;;;;;;17.68;nan;95856.53;5000667;28;20282;-64
2023/08/02 08:38:23;;;;;;;3.30;3.10;;;;;;;17.67;nan;95851.47;4991811;28;20239;-64
2023/08/02 08:40:51;;;;;;;3.70;3.40;;;;;;;17.60;nan;95854.38;5000147;28;20435;-63
2023/08/02 08:43:19;;;;;;;3.47;3.27;;;;;;;17.58;nan;95853.84;4997022;28;20209;-64
2023/08/02 08:45:48;;;;;;;3.13;2.93;;;;;;;17.31;nan;95846.75;4980645;28;20254;-63
2023/08/02 08:48:17;;;;;;;3.80;3.57;;;;;;;17.36;nan;95838.72;4932924;28;20244;-64
2023/08/02 08:50:47;;;;;;;3.60;3.30;;;;;;;17.15;nan;95853.88;4994826;28;20208;-64
2023/08/02 08:53:18;;;;;;;4.83;3.80;;;;;;;17.10;nan;95840.47;4994792;28;20715;-63
2023/08/02 08:55:46;;;;;;;3.97;3.40;;;;;;;16.95;nan;95844.66;5000708;28;20206;-63
2023/08/02 08:58:14;;;;;;;3.97;3.67;;;;;;;16.81;nan;95833.59;4994653;28;20224;-63
2023/08/02 09:00:44;;;;;;;5.00;4.67;;;;;;;17.06;nan;95841.00;4999500;28;20213;-63
2023/08/02 09:03:13;;;;;;;5.27;4.93;;;;;;;16.99;nan;95829.72;4941471;28;21055;-63
2023/08/02 09:05:42;;;;;;;4.20;3.80;;;;;;;17.14;nan;95833.53;4994256;28;20198;-64
2023/08/02 09:08:10;;;;;;;4.73;3.40;;;;;;;17.32;nan;95834.97;4904324;28;20294;-64
2023/08/02 09:10:38;;;;;;;3.87;3.50;;;;;;;17.23;nan;95839.22;4995037;28;20210;-64
2023/08/02 09:13:06;;;;;;;5.30;3.20;;;;;;;17.27;nan;95825.06;4988874;28;20229;-64
2023/08/02 09:15:34;;;;;;;4.10;3.43;;;;;;;17.41;nan;95830.72;4999745;28;20208;-65
2023/08/02 09:18:02;;;;;;;3.40;3.20;;;;;;;17.36;nan;95822.66;4990271;28;20241;-63
2023/08/02 09:20:29;;;;;;;3.40;3.20;;;;;;;17.68;nan;95824.41;4995193;28;20197;-63
2023/08/02 09:22:59;;;;;;;3.73;3.37;;;;;;;17.62;nan;95818.25;4972044;28;20224;-63
2023/08/02 09:25:28;;;;;;;3.67;3.37;;;;;;;17.60;nan;95825.72;4998411;28;20210;-63
2023/08/02 09:27:58;;;;;;;3.30;3.10;;;;;;;17.36;nan;95811.97;4995561;28;20201;-63
2023/08/02 09:30:28;;;;;;;4.20;3.27;;;;;;;17.13;nan;95816.69;4998709;28;20251;-63
2023/08/02 09:33:00;;;;;;;3.47;3.23;;;;;;;16.90;nan;95815.19;4927450;28;20236;-62
2023/08/02 09:35:32;;;;;;;3.20;2.90;;;;;;;16.71;nan;95818.25;4995798;28;20201;-61
2023/08/02 09:38:01;;;;;;;3.23;3.03;;;;;;;16.74;nan;95809.72;4899464;28;20213;-64
2023/08/02 09:40:37;;;;;;;3.33;3.03;;;;;;;16.71;nan;95804.09;4997165;28;20205;-62
2023/08/02 09:43:22;;;;;;;3.20;3.00;;;;;;;16.92;nan;95799.69;4996764;28;20198;-60
2023/08/02 09:45:49;;;;;;;3.50;3.20;;;;;;;16.87;nan;95797.78;4990302;28;20211;-62
2023/08/02 09:48:17;;;;;;;3.57;2.97;;;;;;;16.54;nan;95794.34;4990781;28;20235;-63
2023/08/02 09:50:54;;;;;;;3.17;2.87;;;;;;;16.48;nan;95787.34;4996133;28;20660;-64
2023/08/02 09:53:25;;;;;;;4.30;3.90;;;;;;;16.45;nan;95807.38;4992129;28;20233;-63
2023/08/02 09:55:56;;;;;;;3.40;3.20;;;;;;;16.33;nan;95788.84;4995239;28;20201;-62
2023/08/02 09:58:25;;;;;;;3.20;3.00;;;;;;;16.27;nan;95795.19;4991576;28;20228;-63
2023/08/02 10:00:53;;;;;;;5.80;4.97;;;;;;;15.98;nan;95797.34;4993241;28;20216;-62
2023/08/02 10:03:23;;;;;;;4.17;3.47;;;;;;;15.93;nan;95786.63;4936135;28;20213;-63
2023/08/02 10:05:54;;;;;;;3.20;2.90;;;;;;;15.95;nan;95787.16;4997056;28;20215;-64
2023/08/02 10:08:24;;;;;;;3.80;3.50;;;;;;;15.95;nan;95784.50;4898340;28;20217;-64
2023/08/02 10:10:53;;;;;;;3.73;3.43;;;;;;;16.12;nan;95792.41;4991171;28;20221;-63
2023/08/02 10:13:23;;;;;;;3.20;2.93;;;;;;;16.01;nan;95788.81;4994063;28;20679;-63
2023/08/02 10:15:51;;;;;;;3.60;3.27;;;;;;;16.19;nan;95791.13;4992354;28;20216;-63
2023/08/02 10:18:19;;;;;;;3.50;3.30;;;;;;;16.14;nan;95788.44;4992191;28;20664;-64
2023/08/02 10:20:48;;;;;;;3.70;3.50;;;;;;;16.13;nan;95794.00;4994350;28;20212;-66
2023/08/02 10:23:15;;;;;;;4.90;3.40;;;;;;;16.12;nan;95782.53;4987274;28;20236;-65
2023/08/02 10:25:45;;;;;;;3.53;3.33;;;;;;;16.16;nan;95772.13;4994516;28;20209;-65
2023/08/02 10:28:13;;;;;;;3.63;3.33;;;;;;;16.08;nan;95772.59;4990984;28;20204;-64
2023/08/02 10:30:40;;;;;;;3.70;3.40;;;;;;;15.93;nan;95770.59;4997132;28;20224;-64
2023/08/02 10:33:12;;;;;;;3.57;3.27;;;;;;;16.18;nan;95768.16;4990405;28;20256;-65
2023/08/02 10:36:00;;;;;;;4.43;3.67;;;;;;;16.14;nan;95763.56;4993752;28;20212;-64
2023/08/02 10:38:30;;;;;;;3.70;3.40;;;;;;;15.96;nan;95762.06;4932820;28;20290;-64
2023/08/02 10:41:03;;;;;;;3.83;3.53;;;;;;;15.88;nan;95744.63;4993187;28;20209;-64
2023/08/02 10:43:31;;;;;;;5.03;3.77;;;;;;;15.68;nan;95753.22;4894409;28;20251;-63
2023/08/02 10:46:18;;;;;;;4.97;4.57;;;;;;;15.68;nan;95750.56;4991698;28;20680;-64
2023/08/02 10:48:46;;;;;;;4.43;3.67;;;;;;;15.53;nan;95745.84;4985949;28;20205;-64
2023/08/02 10:51:30;;;;;;;3.60;3.40;;;;;;;15.46;nan;95730.06;4990449;28;20221;-64
2023/08/02 10:54:10;;;;;;;4.57;4.00;;;;;;;15.46;nan;95720.19;4989267;28;20216;-64
2023/08/02 10:57:10;;;;;;;4.13;3.83;;;;;;;15.39;nan;95726.78;4995790;28;20212;-63
2023/08/02 10:59:39;;;;;;;4.20;3.90;;;;;;;15.41;nan;95724.66;4992873;28;20233;-65
2023/08/02 11:02:09;;;;;;;4.43;4.13;;;;;;;15.31;nan;95707.47;4990916;28;20894;-63
2023/08/02 11:04:38;;;;;;;4.30;3.90;;;;;;;15.55;nan;95712.53;4993983;28;20213;-64
2023/08/02 11:07:13;;;;;;;3.83;3.63;;;;;;;15.55;nan;95719.75;4989504;28;20210;-63
2023/08/02 11:09:41;;;;;;;5.10;4.70;;;;;;;15.58;nan;95703.22;4993244;28;20661;-64
2023/08/02 11:12:11;;;;;;;4.50;4.10;;;;;;;15.70;nan;95706.53;4949469;28;20548;-63
2023/08/02 11:14:40;;;;;;;4.57;4.13;;;;;;;15.82;nan;95701.03;4993029;28;20293;-64
2023/08/02 11:17:08;;;;;;;4.40;4.00;;;;;;;15.71;nan;95678.78;4920778;28;20927;-63
2023/08/02 11:19:39;;;;;;;4.33;3.93;;;;;;;15.80;nan;95684.47;4981780;28;20251;-64
2023/08/02 11:22:07;;;;;;;4.03;3.73;;;;;;;15.67;nan;95688.34;4990917;28;20232;-64
2023/08/02 11:24:42;;;;;;;3.80;3.50;;;;;;;15.60;nan;95693.88;4995154;28;20704;-64
2023/08/02 11:27:17;;;;;;;3.43;3.23;;;;;;;15.33;nan;95686.69;4998550;28;20213;-66
2023/08/02 11:29:57;;;;;;;4.17;3.87;;;;;;;15.39;nan;95689.44;4998502;28;20247;-63
2023/08/02 11:32:25;;;;;;;4.67;3.90;;;;;;;15.24;nan;95672.19;4937380;28;20259;-62
2023/08/02 11:34:53;;;;;;;5.60;3.60;;;;;;;15.22;nan;95674.28;4995272;28;20201;-65
2023/08/02 11:37:22;;;;;;;3.90;3.60;;;;;;;15.01;nan;95667.94;4991649;28;20221;-64
2023/08/02 11:39:53;;;;;;;8.00;3.70;;;;;;;14.98;nan;95669.25;4992778;28;20255;-63
2023/08/02 11:42:26;;;;;;;4.23;3.83;;;;;;;15.00;nan;95651.13;4993803;28;20335;-63
2023/08/02 11:44:53;;;;;;;3.80;3.50;;;;;;;15.10;nan;95655.75;4990581;28;20211;-64
2023/08/02 11:47:35;;;;;;;4.27;3.87;;;;;;;15.36;nan;95666.69;4943304;28;20208;-64
2023/08/02 11:50:03;;;;;;;3.90;3.70;;;;;;;15.39;nan;95662.75;4993844;28;20208;-63
2023/08/02 11:52:33;;;;;;;4.33;3.73;;;;;;;15.26;nan;95654.06;4892218;28;20244;-62
2023/08/02 11:55:01;;;;;;;3.57;3.27;;;;;;;15.30;nan;95652.50;4996081;28;20220;-64
2023/08/02 11:57:31;;;;;;;4.57;4.17;;;;;;;15.29;nan;95650.88;4989848;28;20201;-64
2023/08/02 11:59:59;;;;;;;4.10;3.50;;;;;;;15.33;nan;95652.00;4993053;28;20980;-63